sensor_id;sensor_type;location;lat;lon;timestamp;pressure;altitude;pressure_sealevel;temperature;humidity
57442;BME280;43284;47.042;15.498;2023-11-21T00:01:02;96578.31;;;3.77;100.00
57442;BME280;43284;47.042;15.498;2023-11-21T00:03:29;96582.66;;;3.77;100.00
57442;BME280;43284;47.042;15.498;2023-11-21T00:05:55;96569.88;;;3.72;100.00
57442;BME280;43284;47.042;15.498;2023-11-21T00:08:20;96579.50;;;3.67;100.00
57442;BME280;43284;47.042;15.498;2023-11-21T00:10:46;96582.97;;;3.66;100.00
57442;BME280;43284;47.042;15.498;2023-11-21T00:13:11;96578.69;;;3.65;100.00
57442;BME280;43284;47.042;15.498;2023-11-21T00:15:38;96577.00;;;3.64;100.00
57442;BME280;43284;47.042;15.498;2023-11-21T00:18:03;96579.63;;;3.62;100.00
57442;BME280;43284;47.042;15.498;2023-11-21T00:20:29;96583.00;;;3.64;100.00
57442;BME280;43284;47.042;15.498;2023-11-21T00:22:54;96584.72;;;3.65;100.00
57442;BME280;43284;47.042;15.498;2023-11-21T00:25:20;96579.59;;;3.64;100.00
57442;BME280;43284;47.042;15.498;2023-11-21T00:27:45;96584.66;;;3.67;100.00
57442;BME280;43284;47.042;15.498;2023-11-21T00:30:11;96578.47;;;3.72;100.00
57442;BME280;43284;47.042;15.498;2023-11-21T00:32:37;96590.63;;;3.69;100.00
57442;BME280;43284;47.042;15.498;2023-11-21T00:35:03;96592.38;;;3.68;100.00
57442;BME280;43284;47.042;15.498;2023-11-21T00:37:29;96600.44;;;3.58;100.00
57442;BME280;43284;47.042;15.498;2023-11-21T00:39:57;96597.81;;;3.59;100.00
57442;BME280;43284;47.042;15.498;2023-11-21T00:42:23;96596.88;;;3.62;100.00
57442;BME280;43284;47.042;15.498;2023-11-21T00:45:17;96593.34;;;3.64;100.00
57442;BME280;43284;47.042;15.498;2023-11-21T00:47:43;96597.69;;;3.64;100.00
57442;BME280;43284;47.042;15.498;2023-11-21T00:50:08;96604.50;;;3.66;100.00
57442;BME280;43284;47.042;15.498;2023-11-21T00:52:35;96607.88;;;3.68;100.00
57442;BME280;43284;47.042;15.498;2023-11-21T00:55:01;96609.53;;;3.71;100.00
57442;BME280;43284;47.042;15.498;2023-11-21T00:57:28;96610.50;;;3.67;100.00
57442;BME280;43284;47.042;15.498;2023-11-21T00:59:54;96601.91;;;3.66;100.00
57442;BME280;43284;47.042;15.498;2023-11-21T01:02:20;96600.22;;;3.65;100.00
57442;BME280;43284;47.042;15.498;2023-11-21T01:04:45;96592.38;;;3.68;100.00
57442;BME280;43284;47.042;15.498;2023-11-21T01:07:11;96584.63;;;3.68;100.00
57442;BME280;43284;47.042;15.498;2023-11-21T01:09:36;96580.22;;;3.72;100.00
57442;BME280;43284;47.042;15.498;2023-11-21T01:12:02;96586.22;;;3.72;100.00
57442;BME280;43284;47.042;15.498;2023-11-21T01:14:27;96579.34;;;3.71;100.00
57442;BME280;43284;47.042;15.498;2023-11-21T01:16:53;96581.06;;;3.72;100.00
57442;BME280;43284;47.042;15.498;2023-11-21T01:19:19;96581.06;;;3.72;100.00
57442;BME280;43284;47.042;15.498;2023-11-21T01:21:45;96584.47;;;3.73;100.00
57442;BME280;43284;47.042;15.498;2023-11-21T01:24:10;96579.31;;;3.73;100.00
57442;BME280;43284;47.042;15.498;2023-11-21T01:26:36;96568.13;;;3.72;100.00
57442;BME280;43284;47.042;15.498;2023-11-21T01:29:01;96564.59;;;3.75;100.00
57442;BME280;43284;47.042;15.498;2023-11-21T01:31:27;96553.31;;;3.78;100.00
57442;BME280;43284;47.042;15.498;2023-11-21T01:33:55;96546.47;;;3.77;100.00
57442;BME280;43284;47.042;15.498;2023-11-21T01:36:21;96541.34;;;3.75;100.00
57442;BME280;43284;47.042;15.498;2023-11-21T01:38:47;96543.97;;;3.74;100.00
57442;BME280;43284;47.042;15.498;2023-11-21T01:41:14;96542.97;;;3.78;100.00
57442;BME280;43284;47.042;15.498;2023-11-21T01:43:41;96543.78;;;3.80;100.00
57442;BME280;43284;47.042;15.498;2023-11-21T01:46:08;96546.34;;;3.80;100.00
57442;BME280;43284;47.042;15.498;2023-11-21T01:48:34;96542.09;;;3.79;100.00
57442;BME280;43284;47.042;15.498;2023-11-21T01:51:01;96548.31;;;3.71;100.00
57442;BME280;43284;47.042;15.498;2023-11-21T01:53:27;96545.69;;;3.73;100.00
57442;BME280;43284;47.042;15.498;2023-11-21T01:55:55;96547.44;;;3.72;100.00
57442;BME280;43284;47.042;15.498;2023-11-21T01:58:21;96538.91;;;3.70;100.00
57442;BME280;43284;47.042;15.498;2023-11-21T02:00:47;96538.84;;;3.72;100.00
57442;BME280;43284;47.042;15.498;2023-11-21T02:03:15;96537.94;;;3.73;100.00
57442;BME280;43284;47.042;15.498;2023-11-21T02:05:41;96536.19;;;3.74;100.00
57442;BME280;43284;47.042;15.498;2023-11-21T02:08:07;96530.16;;;3.75;100.00
57442;BME280;43284;47.042;15.498;2023-11-21T02:10:34;96536.91;;;3.79;100.00
57442;BME280;43284;47.042;15.498;2023-11-21T02:13:02;96540.31;;;3.81;100.00
57442;BME280;43284;47.042;15.498;2023-11-21T02:15:28;96534.16;;;3.85;100.00
57442;BME280;43284;47.042;15.498;2023-11-21T02:17:54;96540.09;;;3.87;100.00
57442;BME280;43284;47.042;15.498;2023-11-21T02:20:21;96536.50;;;3.91;100.00
57442;BME280;43284;47.042;15.498;2023-11-21T02:22:51;96533.09;;;3.90;100.00
57442;BME280;43284;47.042;15.498;2023-11-21T02:25:24;96531.34;;;3.91;100.00
57442;BME280;43284;47.042;15.498;2023-11-21T02:27:49;96533.88;;;3.92;100.00
57442;BME280;43284;47.042;15.498;2023-11-21T02:30:18;96533.84;;;3.94;100.00
57442;BME280;43284;47.042;15.498;2023-11-21T02:32:44;96530.31;;;3.97;100.00
57442;BME280;43284;47.042;15.498;2023-11-21T02:35:09;96529.31;;;4.01;100.00
57442;BME280;43284;47.042;15.498;2023-11-21T02:37:37;96529.25;;;4.02;100.00
57442;BME280;43284;47.042;15.498;2023-11-21T02:40:04;96526.72;;;4.01;100.00
57442;BME280;43284;47.042;15.498;2023-11-21T02:42:31;96526.72;;;4.01;100.00
57442;BME280;43284;47.042;15.498;2023-11-21T02:44:57;96526.72;;;4.01;100.00
57442;BME280;43284;47.042;15.498;2023-11-21T02:47:22;96535.31;;;4.01;100.00
57442;BME280;43284;47.042;15.498;2023-11-21T02:49:51;96527.44;;;4.04;100.00
57442;BME280;43284;47.042;15.498;2023-11-21T02:52:18;96526.56;;;4.05;100.00
57442;BME280;43284;47.042;15.498;2023-11-21T02:54:44;96522.25;;;4.06;100.00
57442;BME280;43284;47.042;15.498;2023-11-21T02:57:10;96514.44;;;4.07;100.00
57442;BME280;43284;47.042;15.498;2023-11-21T02:59:35;96517.81;;;4.09;100.00
57442;BME280;43284;47.042;15.498;2023-11-21T03:02:03;96521.22;;;4.11;100.00
57442;BME280;43284;47.042;15.498;2023-11-21T03:04:29;96523.72;;;4.13;100.00
57442;BME280;43284;47.042;15.498;2023-11-21T03:06:56;96519.41;;;4.13;100.00
57442;BME280;43284;47.042;15.498;2023-11-21T03:09:21;96522.88;;;4.12;100.00
57442;BME280;43284;47.042;15.498;2023-11-21T03:11:47;96520.25;;;4.14;100.00
57442;BME280;43284;47.042;15.498;2023-11-21T03:14:12;96525.38;;;4.16;100.00
57442;BME280;43284;47.042;15.498;2023-11-21T03:16:38;96529.59;;;4.18;100.00
57442;BME280;43284;47.042;15.498;2023-11-21T03:19:04;96532.13;;;4.20;100.00
57442;BME280;43284;47.042;15.498;2023-11-21T03:21:30;96536.38;;;4.22;100.00
57442;BME280;43284;47.042;15.498;2023-11-21T03:23:56;96546.66;;;4.24;100.00
57442;BME280;43284;47.042;15.498;2023-11-21T03:26:21;96543.19;;;4.25;100.00
57442;BME280;43284;47.042;15.498;2023-11-21T03:28:47;96550.03;;;4.26;100.00
57442;BME280;43284;47.042;15.498;2023-11-21T03:31:12;96551.78;;;4.25;100.00
57442;BME280;43284;47.042;15.498;2023-11-21T03:33:38;96552.56;;;4.27;100.00
57442;BME280;43284;47.042;15.498;2023-11-21T03:36:03;96556.91;;;4.27;100.00
57442;BME280;43284;47.042;15.498;2023-11-21T03:38:29;96561.94;;;4.31;100.00
57442;BME280;43284;47.042;15.498;2023-11-21T03:40:55;96557.59;;;4.32;100.00
57442;BME280;43284;47.042;15.498;2023-11-21T03:43:20;96559.34;;;4.31;100.00
57442;BME280;43284;47.042;15.498;2023-11-21T03:45:48;96558.44;;;4.32;100.00
57442;BME280;43284;47.042;15.498;2023-11-21T03:48:14;96560.94;;;4.36;100.00
57442;BME280;43284;47.042;15.498;2023-11-21T03:50:39;96566.91;;;4.38;100.00
57442;BME280;43284;47.042;15.498;2023-11-21T03:53:05;96564.31;;;4.38;100.00
57442;BME280;43284;47.042;15.498;2023-11-21T03:55:30;96565.16;;;4.38;100.00
57442;BME280;43284;47.042;15.498;2023-11-21T03:57:57;96570.22;;;4.41;100.00
57442;BME280;43284;47.042;15.498;2023-11-21T04:00:23;96573.59;;;4.43;100.00
57442;BME280;43284;47.042;15.498;2023-11-21T04:02:49;96570.13;;;4.44;100.00
57442;BME280;43284;47.042;15.498;2023-11-21T04:05:17;96573.50;;;4.46;100.00
57442;BME280;43284;47.042;15.498;2023-11-21T04:07:42;96578.63;;;4.48;100.00
57442;BME280;43284;47.042;15.498;2023-11-21T04:10:08;96573.50;;;4.46;100.00
57442;BME280;43284;47.042;15.498;2023-11-21T04:12:37;96567.47;;;4.46;100.00
57442;BME280;43284;47.042;15.498;2023-11-21T04:15:03;96560.50;;;4.48;100.00
57442;BME280;43284;47.042;15.498;2023-11-21T04:17:29;96578.53;;;4.51;100.00
57442;BME280;43284;47.042;15.498;2023-11-21T04:19:55;96571.56;;;4.53;100.00
57442;BME280;43284;47.042;15.498;2023-11-21T04:22:20;96586.13;;;4.56;100.00
57442;BME280;43284;47.042;15.498;2023-11-21T04:24:46;96588.69;;;4.57;100.00
57442;BME280;43284;47.042;15.498;2023-11-21T04:27:12;96584.22;;;4.61;100.00
57442;BME280;43284;47.042;15.498;2023-11-21T04:29:38;96577.41;;;4.58;100.00
57442;BME280;43284;47.042;15.498;2023-11-21T04:32:04;96568.84;;;4.56;100.00
57442;BME280;43284;47.042;15.498;2023-11-21T04:34:30;96565.38;;;4.57;100.00
57442;BME280;43284;47.042;15.498;2023-11-21T04:37:00;96560.13;;;4.59;100.00
57442;BME280;43284;47.042;15.498;2023-11-21T04:39:25;96551.53;;;4.58;100.00
57442;BME280;43284;47.042;15.498;2023-11-21T04:41:51;96549.78;;;4.59;100.00
57442;BME280;43284;47.042;15.498;2023-11-21T04:44:17;96548.91;;;4.60;100.00
57442;BME280;43284;47.042;15.498;2023-11-21T04:46:42;96545.56;;;4.56;100.00
57442;BME280;43284;47.042;15.498;2023-11-21T04:49:08;96548.09;;;4.58;100.00
57442;BME280;43284;47.042;15.498;2023-11-21T04:51:34;96554.13;;;4.58;100.00
57442;BME280;43284;47.042;15.498;2023-11-21T04:53:59;96560.13;;;4.59;100.00
57442;BME280;43284;47.042;15.498;2023-11-21T04:56:25;96554.13;;;4.58;100.00
57442;BME280;43284;47.042;15.498;2023-11-21T04:58:50;96561.88;;;4.58;100.00
57442;BME280;43284;47.042;15.498;2023-11-21T05:01:16;96568.81;;;4.58;100.00
57442;BME280;43284;47.042;15.498;2023-11-21T05:03:41;96575.63;;;4.60;100.00
57442;BME280;43284;47.042;15.498;2023-11-21T05:06:09;96576.53;;;4.59;100.00
57442;BME280;43284;47.042;15.498;2023-11-21T05:08:35;96570.44;;;4.60;100.00
57442;BME280;43284;47.042;15.498;2023-11-21T05:11:02;96576.44;;;4.61;100.00
57442;BME280;43284;47.042;15.498;2023-11-21T05:13:28;96571.22;;;4.62;100.00
57442;BME280;43284;47.042;15.498;2023-11-21T05:15:57;96578.09;;;4.63;100.00
57442;BME280;43284;47.042;15.498;2023-11-21T05:18:22;96585.84;;;4.63;100.00
57442;BME280;43284;47.042;15.498;2023-11-21T05:20:48;96578.16;;;4.62;100.00
57442;BME280;43284;47.042;15.498;2023-11-21T05:23:13;96585.06;;;4.61;100.00
57442;BME280;43284;47.042;15.498;2023-11-21T05:25:39;96583.38;;;4.60;100.00
57442;BME280;43284;47.042;15.498;2023-11-21T05:28:06;96593.72;;;4.60;100.00
57442;BME280;43284;47.042;15.498;2023-11-21T05:30:32;96591.97;;;4.61;100.00
57442;BME280;43284;47.042;15.498;2023-11-21T05:32:57;96597.06;;;4.64;100.00
57442;BME280;43284;47.042;15.498;2023-11-21T05:35:23;96589.22;;;4.65;100.00
57442;BME280;43284;47.042;15.498;2023-11-21T05:37:48;96601.28;;;4.66;100.00
57442;BME280;43284;47.042;15.498;2023-11-21T05:40:18;96596.03;;;4.68;100.00
57442;BME280;43284;47.042;15.498;2023-11-21T05:42:44;96595.22;;;4.67;100.00
57442;BME280;43284;47.042;15.498;2023-11-21T05:45:09;96596.97;;;4.67;100.00
57442;BME280;43284;47.042;15.498;2023-11-21T05:47:37;96592.63;;;4.67;100.00
57442;BME280;43284;47.042;15.498;2023-11-21T05:50:14;96596.91;;;4.68;100.00
57442;BME280;43284;47.042;15.498;2023-11-21T05:52:41;96601.13;;;4.71;100.00
57442;BME280;43284;47.042;15.498;2023-11-21T05:55:08;96611.44;;;4.72;100.00
57442;BME280;43284;47.042;15.498;2023-11-21T05:57:34;96616.66;;;4.71;100.00
57442;BME280;43284;47.042;15.498;2023-11-21T06:00:08;96614.88;;;4.73;100.00
57442;BME280;43284;47.042;15.498;2023-11-21T06:02:40;96613.97;;;4.74;100.00
57442;BME280;43284;47.042;15.498;2023-11-21T06:05:07;96621.69;;;4.75;100.00
57442;BME280;43284;47.042;15.498;2023-11-21T06:07:37;96627.72;;;4.76;100.00
57442;BME280;43284;47.042;15.498;2023-11-21T06:10:04;96638.91;;;4.77;100.00
57442;BME280;43284;47.042;15.498;2023-11-21T06:12:32;96643.19;;;4.78;100.00
57442;BME280;43284;47.042;15.498;2023-11-21T06:15:02;96638.03;;;4.78;100.00
57442;BME280;43284;47.042;15.498;2023-11-21T06:17:30;96638.84;;;4.78;100.00
57442;BME280;43284;47.042;15.498;2023-11-21T06:19:56;96637.06;;;4.80;100.00
57442;BME280;43284;47.042;15.498;2023-11-21T06:22:24;96639.66;;;4.80;100.00
57442;BME280;43284;47.042;15.498;2023-11-21T06:24:50;96643.03;;;4.82;100.00
57442;BME280;43284;47.042;15.498;2023-11-21T06:27:15;96639.59;;;4.82;100.00
57442;BME280;43284;47.042;15.498;2023-11-21T06:29:41;96638.78;;;4.81;100.00
57442;BME280;43284;47.042;15.498;2023-11-21T06:32:07;96633.63;;;4.80;100.00
57442;BME280;43284;47.042;15.498;2023-11-21T06:34:33;96632.69;;;4.82;100.00
57442;BME280;43284;47.042;15.498;2023-11-21T06:36:59;96636.06;;;4.84;100.00
57442;BME280;43284;47.042;15.498;2023-11-21T06:39:24;96640.34;;;4.85;100.00
57442;BME280;43284;47.042;15.498;2023-11-21T06:41:50;96641.13;;;4.87;100.00
57442;BME280;43284;47.042;15.498;2023-11-21T06:44:15;96644.50;;;4.89;100.00
57442;BME280;43284;47.042;15.498;2023-11-21T06:46:43;96643.72;;;4.87;100.00
57442;BME280;43284;47.042;15.498;2023-11-21T06:49:10;96648.06;;;4.87;100.00
57442;BME280;43284;47.042;15.498;2023-11-21T06:51:36;96649.75;;;4.88;100.00
57442;BME280;43284;47.042;15.498;2023-11-21T06:54:01;96659.22;;;4.89;100.00
57442;BME280;43284;47.042;15.498;2023-11-21T06:56:27;96656.56;;;4.90;100.00
57442;BME280;43284;47.042;15.498;2023-11-21T06:58:52;96658.22;;;4.93;100.00
57442;BME280;43284;47.042;15.498;2023-11-21T07:01:21;96657.28;;;4.94;100.00
57442;BME280;43284;47.042;15.498;2023-11-21T07:03:46;96664.19;;;4.95;100.00
57442;BME280;43284;47.042;15.498;2023-11-21T07:06:12;96665.03;;;4.95;100.00
57442;BME280;43284;47.042;15.498;2023-11-21T07:08:37;96661.56;;;4.97;100.00
57442;BME280;43284;47.042;15.498;2023-11-21T07:11:03;96659.75;;;4.99;100.00
57442;BME280;43284;47.042;15.498;2023-11-21T07:13:30;96664.88;;;5.00;100.00
57442;BME280;43284;47.042;15.498;2023-11-21T07:15:56;96671.69;;;5.03;100.00
57442;BME280;43284;47.042;15.498;2023-11-21T07:18:21;96668.19;;;5.04;100.00
57442;BME280;43284;47.042;15.498;2023-11-21T07:20:47;96671.59;;;5.06;100.00
57442;BME280;43284;47.042;15.498;2023-11-21T07:23:12;96668.03;;;5.08;100.00
57442;BME280;43284;47.042;15.498;2023-11-21T07:25:38;96661.03;;;5.12;100.00
57442;BME280;43284;47.042;15.498;2023-11-21T07:28:03;96660.06;;;5.14;100.00
57442;BME280;43284;47.042;15.498;2023-11-21T07:30:30;96661.69;;;5.17;100.00
57442;BME280;43284;47.042;15.498;2023-11-21T07:32:56;96661.66;;;5.19;100.00
57442;BME280;43284;47.042;15.498;2023-11-21T07:35:21;96664.78;;;5.27;100.00
57442;BME280;43284;47.042;15.498;2023-11-21T07:37:47;96668.13;;;5.30;100.00
57442;BME280;43284;47.042;15.498;2023-11-21T07:40:14;96668.88;;;5.34;100.00
57442;BME280;43284;47.042;15.498;2023-11-21T07:42:40;96672.13;;;5.39;100.00
57442;BME280;43284;47.042;15.498;2023-11-21T07:45:08;96670.97;;;5.48;100.00
57442;BME280;43284;47.042;15.498;2023-11-21T07:47:35;96674.41;;;5.48;100.00
57442;BME280;43284;47.042;15.498;2023-11-21T07:50:03;96670.91;;;5.49;100.00
57442;BME280;43284;47.042;15.498;2023-11-21T07:52:28;96667.41;;;5.50;100.00
57442;BME280;43284;47.042;15.498;2023-11-21T07:54:56;96661.25;;;5.53;100.00
57442;BME280;43284;47.042;15.498;2023-11-21T07:57:21;96662.84;;;5.57;100.00
57442;BME280;43284;47.042;15.498;2023-11-21T07:59:47;96665.22;;;5.63;100.00
57442;BME280;43284;47.042;15.498;2023-11-21T08:02:12;96657.25;;;5.68;100.00
57442;BME280;43284;47.042;15.498;2023-11-21T08:04:38;96660.47;;;5.74;100.00
57442;BME280;43284;47.042;15.498;2023-11-21T08:07:03;96656.81;;;5.80;100.00
57442;BME280;43284;47.042;15.498;2023-11-21T08:09:29;96661.69;;;5.88;100.00
57442;BME280;43284;47.042;15.498;2023-11-21T08:11:55;96664.03;;;5.95;100.00
57442;BME280;43284;47.042;15.498;2023-11-21T08:14:22;96662.13;;;6.01;100.00
57442;BME280;43284;47.042;15.498;2023-11-21T08:16:47;96660.97;;;6.08;100.00
57442;BME280;43284;47.042;15.498;2023-11-21T08:19:13;96662.34;;;6.16;100.00
57442;BME280;43284;47.042;15.498;2023-11-21T08:21:41;96662.19;;;6.21;100.00
57442;BME280;43284;47.042;15.498;2023-11-21T08:24:07;96659.34;;;6.27;100.00
57442;BME280;43284;47.042;15.498;2023-11-21T08:26:36;96656.56;;;6.32;100.00
57442;BME280;43284;47.042;15.498;2023-11-21T08:29:01;96655.53;;;6.36;100.00
57442;BME280;43284;47.042;15.498;2023-11-21T08:31:28;96652.69;;;6.42;100.00
57442;BME280;43284;47.042;15.498;2023-11-21T08:33:54;96653.38;;;6.47;100.00
57442;BME280;43284;47.042;15.498;2023-11-21T08:36:24;96649.66;;;6.53;100.00
57442;BME280;43284;47.042;15.498;2023-11-21T08:38:50;96655.50;;;6.58;100.00
57442;BME280;43284;47.042;15.498;2023-11-21T08:41:17;96648.41;;;6.63;100.00
57442;BME280;43284;47.042;15.498;2023-11-21T08:43:48;96648.16;;;6.69;100.00
57442;BME280;43284;47.042;15.498;2023-11-21T08:46:14;96647.03;;;6.75;100.00
57442;BME280;43284;47.042;15.498;2023-11-21T08:48:40;96642.50;;;6.80;100.00
57442;BME280;43284;47.042;15.498;2023-11-21T08:51:12;96644.81;;;6.86;100.00
57442;BME280;43284;47.042;15.498;2023-11-21T08:53:39;96654.13;;;6.92;100.00
57442;BME280;43284;47.042;15.498;2023-11-21T08:56:05;96652.25;;;6.95;100.00
57442;BME280;43284;47.042;15.498;2023-11-21T08:58:31;96657.25;;;7.00;100.00
57442;BME280;43284;47.042;15.498;2023-11-21T09:00:57;96650.16;;;7.04;100.00
57442;BME280;43284;47.042;15.498;2023-11-21T09:03:23;96649.13;;;7.08;100.00
57442;BME280;43284;47.042;15.498;2023-11-21T09:05:49;96642.81;;;7.13;100.00
57442;BME280;43284;47.042;15.498;2023-11-21T09:08:14;96641.78;;;7.17;100.00
57442;BME280;43284;47.042;15.498;2023-11-21T09:10:40;96641.44;;;7.25;100.00
57442;BME280;43284;47.042;15.498;2023-11-21T09:13:07;96637.78;;;7.29;100.00
57442;BME280;43284;47.042;15.498;2023-11-21T09:15:34;96635.81;;;7.34;100.00
57442;BME280;43284;47.042;15.498;2023-11-21T09:18:00;96642.53;;;7.40;100.00
57442;BME280;43284;47.042;15.498;2023-11-21T09:20:26;96631.91;;;7.45;100.00
57442;BME280;43284;47.042;15.498;2023-11-21T09:22:52;96632.63;;;7.48;100.00
57442;BME280;43284;47.042;15.498;2023-11-21T09:25:17;96639.50;;;7.49;100.00
57442;BME280;43284;47.042;15.498;2023-11-21T09:27:44;96640.22;;;7.53;100.00
57442;BME280;43284;47.042;15.498;2023-11-21T09:30:11;96632.34;;;7.54;100.00
57442;BME280;43284;47.042;15.498;2023-11-21T09:32:39;96629.88;;;7.51;100.00
57442;BME280;43284;47.042;15.498;2023-11-21T09:35:05;96642.88;;;7.51;100.00
57442;BME280;43284;47.042;15.498;2023-11-21T09:37:33;96639.22;;;7.55;100.00
57442;BME280;43284;47.042;15.498;2023-11-21T09:39:59;96638.25;;;7.58;100.00
57442;BME280;43284;47.042;15.498;2023-11-21T09:42:36;96636.41;;;7.60;100.00
57442;BME280;43284;47.042;15.498;2023-11-21T09:47:46;96629.41;;;7.62;100.00
57442;BME280;43284;47.042;15.498;2023-11-21T09:50:16;96633.53;;;7.66;100.00
57442;BME280;43284;47.042;15.498;2023-11-21T09:52:57;96635.16;;;7.69;100.00
57442;BME280;43284;47.042;15.498;2023-11-21T09:55:26;96631.56;;;7.71;100.00
57442;BME280;43284;47.042;15.498;2023-11-21T09:57:53;96623.75;;;7.71;100.00
57442;BME280;43284;47.042;15.498;2023-11-21T10:00:19;96620.13;;;7.75;100.00
57442;BME280;43284;47.042;15.498;2023-11-21T10:02:49;96624.25;;;7.79;100.00
57442;BME280;43284;47.042;15.498;2023-11-21T10:05:15;96618.06;;;7.82;100.00
57442;BME280;43284;47.042;15.498;2023-11-21T10:07:43;96616.47;;;7.79;100.00
57442;BME280;43284;47.042;15.498;2023-11-21T10:10:10;96611.09;;;7.82;100.00
57442;BME280;43284;47.042;15.498;2023-11-21T10:12:36;96621.38;;;7.86;100.00
57442;BME280;43284;47.042;15.498;2023-11-21T10:15:07;96605.06;;;7.82;100.00
57442;BME280;43284;47.042;15.498;2023-11-21T10:17:35;96606.66;;;7.84;100.00
57442;BME280;43284;47.042;15.498;2023-11-21T10:20:09;96607.44;;;7.87;100.00
57442;BME280;43284;47.042;15.498;2023-11-21T10:22:41;96605.63;;;7.89;100.00
57442;BME280;43284;47.042;15.498;2023-11-21T10:25:10;96613.53;;;7.87;100.00
57442;BME280;43284;47.042;15.498;2023-11-21T10:27:40;96609.97;;;7.88;100.00
57442;BME280;43284;47.042;15.498;2023-11-21T10:30:07;96616.03;;;7.89;100.00
57442;BME280;43284;47.042;15.498;2023-11-21T10:32:38;96613.34;;;7.90;100.00
57442;BME280;43284;47.042;15.498;2023-11-21T10:35:03;96613.44;;;7.89;100.00
57442;BME280;43284;47.042;15.498;2023-11-21T10:37:41;96616.03;;;7.89;100.00
57442;BME280;43284;47.042;15.498;2023-11-21T10:40:09;96609.97;;;7.88;100.00
57442;BME280;43284;47.042;15.498;2023-11-21T10:42:40;96605.63;;;7.89;100.00
57442;BME280;43284;47.042;15.498;2023-11-21T10:45:07;96600.41;;;7.89;100.00
57442;BME280;43284;47.042;15.498;2023-11-21T10:47:44;96608.16;;;7.90;100.00
57442;BME280;43284;47.042;15.498;2023-11-21T10:50:10;96606.38;;;7.91;100.00
57442;BME280;43284;47.042;15.498;2023-11-21T10:52:39;96604.84;;;7.87;100.00
57442;BME280;43284;47.042;15.498;2023-11-21T10:55:26;96597.91;;;7.87;100.00
57442;BME280;43284;47.042;15.498;2023-11-21T10:57:53;96604.84;;;7.87;100.00
57442;BME280;43284;47.042;15.498;2023-11-21T11:00:19;96602.25;;;7.87;100.00
57442;BME280;43284;47.042;15.498;2023-11-21T11:02:52;96607.44;;;7.87;100.00
57442;BME280;43284;47.042;15.498;2023-11-21T11:05:25;96603.84;;;7.89;100.00
57442;BME280;43284;47.042;15.498;2023-11-21T11:07:53;96601.97;;;7.93;100.00
57442;BME280;43284;47.042;15.498;2023-11-21T11:10:25;96596.69;;;7.94;100.00
57442;BME280;43284;47.042;15.498;2023-11-21T11:12:53;96600.06;;;7.96;100.00
57442;BME280;43284;47.042;15.498;2023-11-21T11:15:19;96593.16;;;7.95;100.00
57442;BME280;43284;47.042;15.498;2023-11-21T11:17:48;96593.94;;;7.97;100.00
57442;BME280;43284;47.042;15.498;2023-11-21T11:20:15;96588.72;;;7.97;100.00
57442;BME280;43284;47.042;15.498;2023-11-21T11:31:26;96601.63;;;8.00;100.00
57442;BME280;43284;47.042;15.498;2023-11-21T11:34:16;96605.88;;;8.01;100.00
57442;BME280;43284;47.042;15.498;2023-11-21T11:37:07;96591.97;;;8.02;100.00
57442;BME280;43284;47.042;15.498;2023-11-21T11:39:38;96592.66;;;8.06;100.00
57442;BME280;43284;47.042;15.498;2023-11-21T11:42:07;96583.94;;;8.07;100.00
57442;BME280;43284;47.042;15.498;2023-11-21T11:47:25;96590.28;;;8.01;100.00
57442;BME280;43284;47.042;15.498;2023-11-21T11:50:08;96587.88;;;7.97;100.00
57442;BME280;43284;47.042;15.498;2023-11-21T11:52:50;96594.69;;;7.99;100.00
57442;BME280;43284;47.042;15.498;2023-11-21T11:55:17;96594.63;;;8.01;100.00
57442;BME280;43284;47.042;15.498;2023-11-21T11:57:47;96586.84;;;8.01;100.00
57442;BME280;43284;47.042;15.498;2023-11-21T12:00:21;96582.41;;;8.03;100.00
57442;BME280;43284;47.042;15.498;2023-11-21T12:02:55;96586.69;;;8.04;100.00
57442;BME280;43284;47.042;15.498;2023-11-21T12:05:25;96580.56;;;8.05;100.00
57442;BME280;43284;47.042;15.498;2023-11-21T12:07:58;96584.91;;;8.04;100.00
57442;BME280;43284;47.042;15.498;2023-11-21T12:10:26;96580.47;;;8.07;100.00
57442;BME280;43284;47.042;15.498;2023-11-21T12:13:05;96582.25;;;8.06;100.00
57442;BME280;43284;47.042;15.498;2023-11-21T12:15:33;96581.25;;;8.09;100.00
57442;BME280;43284;47.042;15.498;2023-11-21T12:17:59;96582.94;;;8.10;100.00
57442;BME280;43284;47.042;15.498;2023-11-21T12:20:26;96575.13;;;8.10;100.00
57442;BME280;43284;47.042;15.498;2023-11-21T12:22:56;96569.78;;;8.13;100.00
57442;BME280;43284;47.042;15.498;2023-11-21T12:25:26;96573.91;;;8.17;100.00
57442;BME280;43284;47.042;15.498;2023-11-21T12:27:55;96569.41;;;8.20;100.00
57442;BME280;43284;47.042;15.498;2023-11-21T12:30:23;96570.97;;;8.24;100.00
57442;BME280;43284;47.042;15.498;2023-11-21T12:32:53;96571.72;;;8.27;100.00
57442;BME280;43284;47.042;15.498;2023-11-21T12:35:21;96568.25;;;8.26;100.00
57442;BME280;43284;47.042;15.498;2023-11-21T12:37:48;96557.84;;;8.26;100.00
57442;BME280;43284;47.042;15.498;2023-11-21T12:40:16;96554.25;;;8.29;100.00
57442;BME280;43284;47.042;15.498;2023-11-21T12:42:43;96560.38;;;8.28;100.00
57442;BME280;43284;47.042;15.498;2023-11-21T12:45:18;96564.75;;;8.27;100.00
57442;BME280;43284;47.042;15.498;2023-11-21T12:47:52;96562.97;;;8.28;100.00
57442;BME280;43284;47.042;15.498;2023-11-21T12:50:27;96559.44;;;8.29;100.00
57442;BME280;43284;47.042;15.498;2023-11-21T12:53:05;96557.72;;;8.29;100.00
57442;BME280;43284;47.042;15.498;2023-11-21T12:55:32;96551.63;;;8.29;100.00
57442;BME280;43284;47.042;15.498;2023-11-21T12:58:01;96551.72;;;8.27;100.00
57442;BME280;43284;47.042;15.498;2023-11-21T13:00:45;96551.63;;;8.29;100.00
57442;BME280;43284;47.042;15.498;2023-11-21T13:03:15;96543.16;;;8.25;100.00
57442;BME280;43284;47.042;15.498;2023-11-21T13:05:51;96537.09;;;8.24;100.00